createdAt,value
2018-06-18T00:02:24.542Z,99.90
2018-06-18T00:04:53.307Z,99.90
2018-06-18T00:07:22.085Z,99.90
2018-06-18T00:09:50.778Z,99.90
2018-06-18T00:12:19.467Z,99.90
2018-06-18T00:14:48.165Z,99.90
2018-06-18T00:17:16.874Z,99.90
2018-06-18T00:19:45.702Z,99.90
2018-06-18T00:22:17.818Z,99.90
2018-06-18T00:24:48.260Z,99.90
2018-06-18T00:27:17.033Z,99.90
2018-06-18T00:29:45.736Z,99.90
2018-06-18T00:32:14.503Z,99.90
2018-06-18T00:34:43.196Z,99.90
2018-06-18T00:37:11.962Z,99.90
2018-06-18T00:39:40.643Z,99.90
2018-06-18T00:42:09.355Z,99.90
2018-06-18T00:44:38.717Z,99.90
2018-06-18T00:47:07.682Z,99.90
2018-06-18T00:49:36.643Z,99.90
2018-06-18T00:52:06.144Z,99.90
2018-06-18T00:54:35.659Z,99.90
2018-06-18T00:57:06.365Z,99.90
2018-06-18T00:59:35.793Z,99.90
2018-06-18T01:02:06.876Z,99.90
2018-06-18T01:04:35.949Z,99.90
2018-06-18T01:07:05.300Z,99.90
2018-06-18T01:09:34.594Z,99.90
2018-06-18T01:12:03.604Z,99.90
2018-06-18T01:14:32.706Z,99.90
2018-06-18T01:17:01.608Z,99.90
2018-06-18T01:19:30.586Z,99.90
2018-06-18T01:22:00.086Z,99.90
2018-06-18T01:25:05.068Z,99.90
2018-06-18T01:27:34.075Z,99.90
2018-06-18T01:30:03.282Z,99.90
2018-06-18T01:32:38.993Z,99.90
2018-06-18T01:35:08.970Z,99.90
2018-06-18T01:37:37.850Z,99.90
2018-06-18T01:40:06.860Z,99.90
2018-06-18T01:42:35.572Z,99.90
2018-06-18T01:45:04.351Z,99.90
2018-06-18T01:47:33.119Z,99.90
2018-06-18T01:50:01.846Z,99.90
2018-06-18T01:52:30.591Z,99.90
2018-06-18T01:54:59.311Z,99.90
2018-06-18T01:57:28.031Z,99.90
2018-06-18T01:59:56.745Z,99.90
2018-06-18T02:02:25.479Z,99.90
2018-06-18T02:04:54.212Z,99.90
2018-06-18T02:07:22.980Z,99.90
2018-06-18T02:09:51.733Z,99.90
2018-06-18T02:12:20.450Z,99.90
2018-06-18T02:14:49.173Z,99.90
2018-06-18T02:17:17.951Z,99.90
2018-06-18T02:19:46.737Z,99.90
2018-06-18T02:22:15.458Z,99.90
2018-06-18T02:24:44.181Z,99.90
2018-06-18T02:27:16.802Z,99.90
2018-06-18T02:29:51.897Z,99.90
2018-06-18T02:32:25.863Z,99.90
2018-06-18T02:38:32.918Z,99.90
2018-06-18T02:41:01.706Z,99.90
2018-06-18T02:43:30.380Z,99.90
2018-06-18T02:45:59.114Z,99.90
2018-06-18T02:48:27.837Z,99.90
2018-06-18T02:50:56.664Z,99.90
2018-06-18T02:53:25.418Z,99.90
2018-06-18T02:55:54.132Z,99.90
2018-06-18T02:58:22.841Z,99.90
2018-06-18T03:00:51.611Z,99.90
2018-06-18T03:03:20.310Z,99.90
2018-06-18T03:05:48.999Z,99.90
2018-06-18T03:08:17.707Z,99.90
2018-06-18T03:10:46.406Z,99.90
2018-06-18T03:13:15.102Z,99.90
2018-06-18T03:15:43.846Z,99.90
2018-06-18T03:18:17.790Z,99.90
2018-06-18T03:20:51.832Z,99.90
2018-06-18T03:23:25.694Z,99.90
2018-06-18T03:28:33.386Z,99.90
2018-06-18T03:31:24.914Z,99.90
2018-06-18T03:33:53.613Z,99.90
2018-06-18T03:36:22.346Z,99.90
2018-06-18T03:38:55.206Z,99.90
2018-06-18T03:41:25.911Z,99.90
2018-06-18T03:43:58.879Z,99.90
2018-06-18T03:46:27.570Z,99.90
2018-06-18T03:48:56.250Z,99.90
2018-06-18T03:51:24.944Z,99.90
2018-06-18T03:53:53.661Z,99.90
2018-06-18T03:56:22.315Z,99.90
2018-06-18T03:58:51.006Z,99.90
2018-06-18T04:01:30.742Z,99.90
2018-06-18T04:04:07.176Z,99.90
2018-06-18T04:06:41.305Z,99.90
2018-06-18T04:09:15.249Z,99.90
2018-06-18T04:11:49.257Z,99.90
2018-06-18T04:14:17.986Z,99.90
2018-06-18T04:16:46.753Z,99.90
2018-06-18T04:19:15.482Z,99.90
2018-06-18T04:21:44.165Z,99.90
2018-06-18T04:24:12.856Z,99.90
2018-06-18T04:26:41.939Z,99.90
2018-06-18T04:29:14.219Z,99.90
2018-06-18T04:31:42.985Z,99.90
2018-06-18T04:34:32.367Z,99.90
2018-06-18T04:37:01.161Z,99.90
2018-06-18T04:39:29.858Z,99.90
2018-06-18T04:42:03.801Z,99.90
2018-06-18T04:47:11.663Z,99.90
2018-06-18T04:49:45.666Z,99.90
2018-06-18T04:52:14.435Z,99.90
2018-06-18T04:54:43.097Z,99.90
2018-06-18T04:57:11.793Z,99.90
2018-06-18T04:59:43.484Z,99.90
2018-06-18T05:02:12.174Z,99.90
2018-06-18T05:04:40.888Z,99.90
2018-06-18T05:07:09.620Z,99.90
2018-06-18T05:10:04.534Z,99.90
2018-06-18T05:12:33.267Z,99.90
2018-06-18T05:15:02.188Z,99.90
2018-06-18T05:17:30.870Z,99.90
2018-06-18T05:19:59.882Z,99.90
2018-06-18T05:22:28.611Z,99.90
2018-06-18T05:24:57.591Z,99.90
2018-06-18T05:27:32.183Z,99.90
2018-06-18T05:30:07.799Z,99.90
2018-06-18T05:32:36.558Z,99.90
2018-06-18T05:35:05.982Z,99.90
2018-06-18T05:37:42.902Z,99.90
2018-06-18T05:40:11.601Z,99.90
2018-06-18T05:42:40.300Z,99.90
2018-06-18T05:45:09.062Z,99.90
2018-06-18T05:47:37.761Z,99.90
2018-06-18T05:50:06.506Z,99.90
2018-06-18T05:52:35.219Z,99.90
2018-06-18T05:55:04.003Z,99.90
2018-06-18T05:57:33.388Z,99.90
2018-06-18T06:00:02.095Z,99.90
2018-06-18T06:02:30.791Z,99.90
2018-06-18T06:04:59.527Z,99.90
2018-06-18T06:07:28.251Z,99.90
2018-06-18T06:09:56.938Z,99.90
2018-06-18T06:12:25.642Z,99.90
2018-06-18T06:14:54.461Z,99.90
2018-06-18T06:17:23.140Z,99.90
2018-06-18T06:19:51.825Z,99.90
2018-06-18T06:22:20.644Z,99.90
2018-06-18T06:24:49.336Z,99.90
2018-06-18T06:27:18.018Z,99.90
2018-06-18T06:29:46.799Z,99.90
2018-06-18T06:32:15.508Z,99.90
2018-06-18T06:34:47.071Z,99.90
2018-06-18T06:37:15.765Z,99.90
2018-06-18T06:39:44.450Z,99.90
2018-06-18T06:42:16.300Z,99.90
2018-06-18T06:44:44.988Z,99.90
2018-06-18T06:47:13.783Z,99.90
2018-06-18T06:49:42.517Z,99.90
2018-06-18T06:52:11.303Z,99.90
2018-06-18T06:54:39.971Z,99.90
2018-06-18T06:57:08.693Z,99.90
2018-06-18T06:59:37.361Z,99.90
2018-06-18T07:02:06.104Z,99.90
2018-06-18T07:04:34.835Z,99.90
2018-06-18T07:07:03.489Z,99.90
2018-06-18T07:12:00.479Z,99.90
2018-06-18T07:14:29.175Z,99.90
2018-06-18T07:16:57.859Z,99.90
2018-06-18T07:19:26.581Z,99.90
2018-06-18T07:21:55.302Z,99.90
2018-06-18T07:24:24.005Z,99.90
2018-06-18T07:26:52.711Z,99.90
2018-06-18T07:29:21.389Z,99.90
2018-06-18T07:31:50.061Z,99.90
2018-06-18T07:34:18.805Z,99.90
2018-06-18T07:39:15.786Z,99.90
2018-06-18T07:41:44.506Z,99.90
2018-06-18T07:44:13.207Z,99.90
2018-06-18T07:46:41.895Z,99.90
2018-06-18T07:49:10.591Z,99.90
2018-06-18T07:51:39.338Z,99.90
2018-06-18T07:54:08.078Z,99.90
2018-06-18T07:56:36.803Z,99.90
2018-06-18T07:59:05.517Z,99.90
2018-06-18T08:01:34.221Z,99.90
2018-06-18T08:04:02.891Z,99.90
2018-06-18T08:06:31.554Z,99.90
2018-06-18T08:09:00.269Z,99.90
2018-06-18T08:11:28.970Z,99.90
2018-06-18T08:13:57.670Z,99.90
2018-06-18T08:16:26.351Z,99.90
2018-06-18T08:18:55.125Z,99.90
2018-06-18T08:21:23.834Z,99.90
2018-06-18T08:26:20.864Z,99.90
2018-06-18T08:28:49.564Z,99.90
2018-06-18T08:31:18.235Z,99.90
2018-06-18T08:33:46.973Z,99.90
2018-06-18T08:36:15.866Z,99.90
2018-06-18T08:38:44.467Z,99.90
2018-06-18T08:41:13.181Z,99.90
2018-06-18T08:43:41.839Z,99.90
2018-06-18T08:46:10.547Z,99.90
2018-06-18T08:48:44.433Z,99.90
2018-06-18T08:51:18.291Z,99.90
2018-06-18T08:53:52.069Z,99.90
2018-06-18T08:56:26.031Z,99.90
2018-06-18T08:59:00.115Z,99.90
2018-06-18T09:01:31.555Z,99.90
2018-06-18T09:04:06.455Z,99.90
2018-06-18T09:06:35.203Z,99.90
2018-06-18T09:09:04.164Z,99.90
2018-06-18T09:11:32.858Z,99.90
2018-06-18T09:14:01.566Z,99.90
2018-06-18T09:16:30.286Z,99.90
2018-06-18T09:18:59.029Z,99.90
2018-06-18T09:23:56.069Z,99.90
2018-06-18T09:26:24.763Z,99.90
2018-06-18T09:28:53.577Z,99.90
2018-06-18T09:31:22.274Z,99.90
2018-06-18T09:33:50.998Z,99.90
2018-06-18T09:36:19.704Z,99.90
2018-06-18T09:38:48.448Z,99.90
2018-06-18T09:41:17.162Z,99.90
2018-06-18T09:43:45.855Z,99.90
2018-06-18T09:46:14.560Z,99.90
2018-06-18T09:48:48.469Z,99.90
2018-06-18T09:51:22.435Z,99.90
2018-06-18T09:53:56.384Z,99.90
2018-06-18T09:56:30.373Z,99.90
2018-06-18T09:59:04.362Z,99.90
2018-06-18T10:01:33.819Z,99.90
2018-06-18T10:04:04.056Z,99.90
2018-06-18T10:06:34.973Z,99.90
2018-06-18T10:09:06.445Z,99.90
2018-06-18T10:11:35.986Z,99.90
2018-06-18T10:14:05.789Z,99.90
2018-06-18T10:16:34.513Z,99.90
2018-06-18T10:19:04.212Z,99.90
2018-06-18T10:21:32.927Z,99.90
2018-06-18T10:24:01.638Z,99.90
2018-06-18T10:26:30.373Z,99.90
2018-06-18T10:28:59.043Z,99.90
2018-06-18T10:31:27.721Z,99.90
2018-06-18T10:34:01.704Z,99.90
2018-06-18T10:36:35.641Z,99.90
2018-06-18T10:39:11.818Z,99.90
2018-06-18T10:41:45.747Z,99.90
2018-06-18T10:44:14.575Z,99.90
2018-06-18T10:46:43.229Z,99.90
2018-06-18T10:49:11.928Z,99.90
2018-06-18T10:51:40.616Z,99.90
2018-06-18T10:54:09.327Z,99.90
2018-06-18T10:56:38.014Z,99.90
2018-06-18T10:59:06.758Z,99.90
2018-06-18T11:01:35.502Z,99.90
2018-06-18T11:04:04.258Z,99.90
2018-06-18T11:06:33.043Z,99.90
2018-06-18T11:09:01.802Z,99.90
2018-06-18T11:11:30.605Z,99.90
2018-06-18T11:13:59.402Z,99.90
2018-06-18T11:16:28.222Z,99.90
2018-06-18T11:19:02.289Z,99.90
2018-06-18T11:21:36.374Z,99.90
2018-06-18T11:24:10.307Z,99.90
2018-06-18T11:26:44.230Z,99.90
2018-06-18T11:29:13.146Z,99.90
2018-06-18T11:31:41.818Z,99.90
2018-06-18T11:34:10.532Z,99.90
2018-06-18T11:36:39.228Z,99.90
2018-06-18T11:39:09.172Z,99.90
2018-06-18T11:41:38.016Z,99.90
2018-06-18T11:44:06.677Z,99.90
2018-06-18T11:46:35.460Z,99.90
2018-06-18T11:51:32.466Z,99.90
2018-06-18T11:54:01.187Z,99.90
2018-06-18T12:02:30.097Z,99.90
2018-06-18T12:05:04.054Z,99.90
2018-06-18T12:07:38.044Z,99.90
2018-06-18T12:10:06.907Z,99.90
2018-06-18T12:12:42.871Z,99.90
2018-06-18T12:15:11.553Z,99.90
2018-06-18T12:17:40.283Z,99.90
2018-06-18T12:20:09.005Z,99.90
2018-06-18T12:22:37.685Z,99.90
2018-06-18T12:25:06.450Z,99.90
2018-06-18T12:27:35.758Z,99.90
2018-06-18T12:30:04.674Z,99.90
2018-06-18T12:32:33.400Z,99.90
2018-06-18T12:35:20.344Z,99.90
2018-06-18T12:37:49.065Z,99.90
2018-06-18T12:40:18.658Z,99.90
2018-06-18T12:42:55.092Z,99.90
2018-06-18T12:51:16.534Z,99.90
2018-06-18T12:54:48.046Z,99.90
2018-06-18T12:57:16.801Z,99.90
2018-06-18T12:59:45.485Z,99.90
2018-06-18T13:02:22.895Z,99.90
2018-06-18T13:04:54.555Z,99.90
2018-06-18T13:07:23.619Z,99.90
2018-06-18T13:09:52.324Z,99.90
2018-06-18T13:12:21.014Z,99.90
2018-06-18T13:14:49.726Z,99.90
2018-06-18T13:17:18.593Z,99.90
2018-06-18T13:19:59.321Z,99.90
2018-06-18T13:22:28.004Z,99.90
2018-06-18T13:24:56.664Z,99.90
2018-06-18T13:27:46.122Z,99.90
2018-06-18T13:30:14.874Z,99.90
2018-06-18T13:35:16.562Z,99.90
2018-06-18T13:37:50.567Z,99.90
2018-06-18T13:40:24.468Z,99.90
2018-06-18T13:42:58.381Z,99.90
2018-06-18T13:45:32.700Z,99.90
2018-06-18T13:48:06.834Z,99.90
2018-06-18T13:50:42.186Z,99.90
2018-06-18T13:53:20.986Z,99.60
2018-06-18T13:55:57.635Z,99.90
2018-06-18T13:58:26.374Z,99.20
2018-06-18T14:01:11.984Z,99.90
2018-06-18T14:03:40.899Z,99.70
2018-06-18T14:08:37.939Z,99.70
2018-06-18T14:14:05.441Z,99.60
2018-06-18T14:16:34.091Z,99.70
2018-06-18T14:24:56.036Z,99.10
2018-06-18T14:27:41.236Z,99.50
2018-06-18T14:30:15.222Z,98.50
2018-06-18T14:32:49.076Z,99.50
2018-06-18T14:35:23.094Z,98.20
2018-06-18T14:37:57.166Z,98.70
2018-06-18T14:40:25.861Z,99.40
2018-06-18T14:42:54.563Z,98.50
2018-06-18T14:45:23.286Z,99.10
2018-06-18T14:47:52.107Z,99.70
2018-06-18T14:50:20.784Z,99.40
2018-06-18T14:52:49.618Z,99.70
2018-06-18T14:55:18.301Z,98.90
2018-06-18T14:57:47.001Z,99.90
2018-06-18T15:00:23.349Z,99.10
2018-06-18T15:03:08.652Z,98.00
2018-06-18T15:05:39.677Z,99.40
2018-06-18T15:08:08.482Z,99.00
2018-06-18T15:10:42.515Z,99.40
2018-06-18T15:13:29.397Z,99.90
2018-06-18T15:16:03.462Z,99.90
2018-06-18T15:18:32.124Z,99.90
2018-06-18T15:21:02.632Z,99.40
2018-06-18T15:23:31.366Z,99.50
2018-06-18T15:26:00.051Z,99.90
2018-06-18T15:28:28.738Z,99.90
2018-06-18T15:30:57.502Z,99.90
2018-06-18T15:33:26.223Z,99.90
2018-06-18T15:35:54.895Z,99.90
2018-06-18T15:38:23.597Z,99.90
2018-06-18T15:40:52.487Z,99.90
2018-06-18T15:43:21.221Z,99.90
2018-06-18T15:45:49.956Z,99.90
2018-06-18T15:48:18.919Z,99.90
2018-06-18T15:50:47.600Z,99.90
2018-06-18T15:53:16.338Z,99.90
2018-06-18T15:55:45.734Z,99.90
2018-06-18T15:58:16.849Z,98.90
2018-06-18T16:00:45.504Z,98.90
2018-06-18T16:03:14.174Z,98.10
2018-06-18T16:05:42.875Z,99.30
2018-06-18T16:08:11.527Z,97.90
2018-06-18T16:10:40.390Z,98.30
2018-06-18T16:13:09.287Z,97.50
2018-06-18T16:15:37.970Z,98.50
2018-06-18T16:18:06.682Z,97.80
2018-06-18T16:20:35.397Z,97.50
2018-06-18T16:23:04.131Z,98.50
2018-06-18T16:25:32.958Z,97.90
2018-06-18T16:28:01.677Z,98.90
2018-06-18T16:30:30.393Z,98.60
2018-06-18T16:32:59.231Z,98.90
2018-06-18T16:35:27.991Z,98.90
2018-06-18T16:37:56.703Z,99.80
2018-06-18T16:40:25.387Z,99.90
2018-06-18T16:42:56.167Z,98.80
2018-06-18T16:45:24.880Z,99.40
2018-06-18T16:47:53.569Z,99.30
2018-06-18T16:52:50.570Z,98.90
2018-06-18T16:55:19.678Z,99.30
2018-06-18T16:57:49.030Z,99.60
2018-06-18T17:00:17.930Z,99.90
2018-06-18T17:05:15.147Z,99.90
2018-06-18T17:07:45.915Z,99.70
2018-06-18T17:10:14.642Z,98.40
2018-06-18T17:12:43.302Z,99.90
2018-06-18T17:18:03.584Z,99.90
2018-06-18T17:20:32.359Z,99.90
2018-06-18T17:23:10.895Z,99.90
2018-06-18T17:25:40.190Z,99.90
2018-06-18T17:28:09.313Z,99.90
2018-06-18T17:33:07.740Z,99.90
2018-06-18T17:35:36.834Z,99.90
2018-06-18T17:38:05.570Z,99.90
2018-06-18T17:40:34.801Z,99.90
2018-06-18T17:43:03.498Z,99.90
2018-06-18T17:45:32.200Z,99.90
2018-06-18T17:48:00.866Z,99.90
2018-06-18T17:50:29.631Z,99.90
2018-06-18T17:52:58.300Z,99.90
2018-06-18T17:55:27.030Z,99.90
2018-06-18T17:57:56.101Z,99.90
2018-06-18T18:00:24.802Z,99.90
2018-06-18T18:02:53.507Z,99.90
2018-06-18T18:05:22.173Z,99.90
2018-06-18T18:07:58.469Z,99.90
2018-06-18T18:10:37.280Z,99.90
2018-06-18T18:13:06.021Z,99.90
2018-06-18T18:15:58.449Z,99.90
2018-06-18T18:18:28.092Z,99.90
2018-06-18T18:20:58.145Z,99.90
2018-06-18T18:23:26.814Z,99.90
2018-06-18T18:25:55.522Z,99.90
2018-06-18T18:28:24.223Z,99.90
2018-06-18T18:30:52.988Z,99.90
2018-06-18T18:33:21.894Z,99.90
2018-06-18T18:35:51.680Z,99.90
2018-06-18T18:38:20.376Z,99.90
2018-06-18T18:40:49.045Z,99.90
2018-06-18T18:43:17.803Z,99.90
2018-06-18T18:45:47.158Z,99.90
2018-06-18T18:48:15.872Z,99.90
2018-06-18T18:50:44.671Z,99.90
2018-06-18T18:59:20.565Z,99.90
2018-06-18T19:01:49.289Z,99.90
2018-06-18T19:04:21.081Z,99.90
2018-06-18T19:06:50.605Z,99.90
2018-06-18T19:09:20.658Z,99.90
2018-06-18T19:11:49.916Z,99.90
2018-06-18T19:14:22.226Z,99.90
2018-06-18T19:16:51.253Z,99.90
2018-06-18T19:19:26.016Z,99.90
2018-06-18T19:21:54.810Z,99.90
2018-06-18T19:24:23.590Z,99.90
2018-06-18T19:26:52.315Z,99.90
2018-06-18T19:29:21.030Z,99.90
2018-06-18T19:31:49.746Z,99.90
2018-06-18T19:34:21.337Z,99.90
2018-06-18T19:36:55.642Z,99.90
2018-06-18T19:39:30.377Z,99.90
2018-06-18T19:41:59.060Z,99.90
2018-06-18T19:44:31.729Z,99.90
2018-06-18T19:49:36.190Z,99.90
2018-06-18T19:52:04.924Z,99.90
2018-06-18T19:57:30.418Z,99.90
2018-06-18T20:00:18.810Z,99.90
2018-06-18T20:02:47.607Z,99.90
2018-06-18T20:05:16.340Z,99.90
2018-06-18T20:07:53.306Z,99.90
2018-06-18T20:10:22.875Z,99.90
2018-06-18T20:12:51.589Z,99.90
2018-06-18T20:15:20.273Z,99.90
2018-06-18T20:17:53.547Z,99.90
2018-06-18T20:20:22.894Z,99.90
2018-06-18T20:22:54.986Z,99.90
2018-06-18T20:25:29.915Z,99.90
2018-06-18T20:27:58.750Z,99.90
2018-06-18T20:30:27.425Z,99.90
2018-06-18T20:32:56.171Z,99.90
2018-06-18T20:35:28.544Z,99.90
2018-06-18T20:37:57.327Z,99.90
2018-06-18T20:40:26.499Z,99.90
2018-06-18T20:42:55.343Z,99.90
2018-06-18T20:45:24.094Z,99.90
2018-06-18T20:47:53.846Z,99.90
2018-06-18T20:50:22.577Z,99.90
2018-06-18T20:52:51.387Z,99.90
2018-06-18T20:55:21.102Z,99.90
2018-06-18T20:57:50.219Z,99.90
2018-06-18T21:00:26.855Z,99.90
2018-06-18T21:02:55.566Z,99.90
2018-06-18T21:05:24.516Z,99.90
2018-06-18T21:07:54.314Z,99.90
2018-06-18T21:10:23.011Z,99.90
2018-06-18T21:15:20.422Z,99.90
2018-06-18T21:17:49.111Z,99.90
2018-06-18T21:20:17.807Z,99.90
2018-06-18T21:22:46.512Z,99.90
2018-06-18T21:25:15.278Z,99.90
2018-06-18T21:27:43.995Z,99.90
2018-06-18T21:30:12.723Z,99.90
2018-06-18T21:32:41.408Z,99.90
2018-06-18T21:35:10.137Z,99.90
2018-06-18T21:37:38.811Z,99.90
2018-06-18T21:40:11.540Z,99.90
2018-06-18T21:42:40.296Z,99.90
2018-06-18T21:45:13.326Z,99.90
2018-06-18T21:47:42.032Z,99.90
2018-06-18T21:50:10.724Z,99.90
2018-06-18T21:52:39.430Z,99.90
2018-06-18T21:55:08.211Z,99.90
2018-06-18T21:57:36.946Z,99.90
2018-06-18T22:00:13.635Z,99.90
2018-06-18T22:02:42.446Z,99.90
2018-06-18T22:05:11.136Z,99.90
2018-06-18T22:07:40.054Z,99.90
2018-06-18T22:10:08.766Z,99.90
2018-06-18T22:12:37.504Z,99.90
2018-06-18T22:15:06.791Z,99.90
2018-06-18T22:17:35.484Z,99.90
2018-06-18T22:20:04.339Z,99.90
2018-06-18T22:22:33.023Z,99.90
2018-06-18T22:25:01.717Z,99.90
2018-06-18T22:27:30.538Z,99.90
2018-06-18T22:29:59.248Z,99.90
2018-06-18T22:32:27.937Z,99.90
2018-06-18T22:34:56.669Z,99.90
2018-06-18T22:37:25.426Z,99.90
2018-06-18T22:39:54.200Z,99.90
2018-06-18T22:42:22.954Z,99.90
2018-06-18T22:44:51.626Z,99.90
2018-06-18T22:47:20.334Z,99.90
2018-06-18T22:49:49.046Z,99.90
2018-06-18T22:52:17.800Z,99.90
2018-06-18T22:54:48.161Z,99.90
2018-06-18T22:57:17.394Z,99.90
2018-06-18T22:59:46.979Z,99.90
2018-06-18T23:02:18.893Z,99.90
2018-06-18T23:04:47.656Z,99.90
2018-06-18T23:07:16.371Z,99.90
2018-06-18T23:09:45.157Z,99.90
2018-06-18T23:12:14.105Z,99.90
2018-06-18T23:14:42.934Z,99.90
2018-06-18T23:17:11.674Z,99.90
2018-06-18T23:19:40.420Z,99.90
2018-06-18T23:22:09.134Z,99.90
2018-06-18T23:24:37.802Z,99.90
2018-06-18T23:27:07.050Z,99.90
2018-06-18T23:29:35.771Z,99.90
2018-06-18T23:32:04.553Z,99.90
2018-06-18T23:34:33.241Z,99.90
2018-06-18T23:37:01.926Z,99.90
2018-06-18T23:39:30.659Z,99.90
2018-06-18T23:41:59.407Z,99.90
2018-06-18T23:44:28.126Z,99.90
2018-06-18T23:46:56.831Z,99.90
2018-06-18T23:49:29.098Z,99.90
2018-06-18T23:51:57.827Z,99.90
2018-06-18T23:54:26.515Z,99.90
2018-06-18T23:56:55.276Z,99.90
2018-06-18T23:59:23.973Z,99.90
